Time;durP1;ratioP1;P1;durP2;ratioP2;P2;SDS_P1;SDS_P2;PMS_P1;PMS_P2;Temp;Humidity;BMP_temperature;BMP_pressure;BME280_temperature;BME280_humidity;BME280_pressure;Samples;Min_cycle;Max_cycle;Signal;HPM_P1;HPM_P2
2023/01/09 00:00:51;;;;;;;3.95;1.55;;;7.00;99.90;;;;;;5008266;28;20073;-86
2023/01/09 00:03:17;;;;;;;5.47;1.63;;;7.00;99.90;;;;;;5009311;28;20057;-86
2023/01/09 00:05:43;;;;;;;3.45;1.40;;;7.10;99.90;;;;;;5026227;28;20064;-87
2023/01/09 00:08:09;;;;;;;4.47;1.40;;;7.20;99.90;;;;;;5000921;28;20046;-86
2023/01/09 00:10:34;;;;;;;3.35;1.00;;;7.00;99.90;;;;;;5009568;28;20115;-85
2023/01/09 00:13:00;;;;;;;4.30;1.55;;;7.60;99.90;;;;;;5011157;28;20045;-85
2023/01/09 00:15:26;;;;;;;2.78;1.10;;;7.10;99.90;;;;;;5015899;28;20061;-86
2023/01/09 00:17:52;;;;;;;2.42;1.10;;;7.20;99.90;;;;;;5015998;28;20076;-87
2023/01/09 00:20:18;;;;;;;5.78;1.33;;;7.10;99.90;;;;;;5009896;28;20034;-86
2023/01/09 00:22:44;;;;;;;2.75;1.05;;;7.00;99.90;;;;;;5009954;28;20124;-86
2023/01/09 00:25:13;;;;;;;4.57;1.33;;;7.30;99.90;;;;;;4992812;28;20081;-85
2023/01/09 00:27:39;;;;;;;3.88;1.13;;;7.10;99.90;;;;;;4989397;28;20533;-85
2023/01/09 00:30:05;;;;;;;3.92;1.20;;;6.90;99.90;;;;;;5006691;28;20128;-86
2023/01/09 00:32:31;;;;;;;2.55;1.20;;;6.70;99.90;;;;;;4994287;28;20041;-86
2023/01/09 00:34:57;;;;;;;4.00;1.20;;;7.00;99.90;;;;;;5009219;28;20469;-86
2023/01/09 00:37:23;;;;;;;4.43;1.13;;;6.90;99.90;;;;;;5008747;28;20593;-86
2023/01/09 00:39:49;;;;;;;2.33;0.90;;;6.90;99.90;;;;;;5008539;28;20057;-85
2023/01/09 00:42:21;;;;;;;2.75;1.10;;;6.90;99.90;;;;;;4992399;28;20048;-86
2023/01/09 00:44:51;;;;;;;7.13;1.30;;;6.90;99.90;;;;;;5008794;28;20143;-87
2023/01/09 00:47:31;;;;;;;4.28;1.10;;;6.20;99.90;;;;;;5006390;28;20119;-85
2023/01/09 00:50:05;;;;;;;5.93;1.23;;;6.90;99.90;;;;;;5023478;28;20053;-87
2023/01/09 00:52:34;;;;;;;5.72;1.20;;;6.90;99.90;;;;;;5005647;28;20052;-86
2023/01/09 00:55:01;;;;;;;7.07;1.25;;;7.00;99.90;;;;;;5007323;28;20045;-87
2023/01/09 00:57:27;;;;;;;4.72;1.30;;;6.90;99.90;;;;;;5007490;28;20746;-84
2023/01/09 00:59:53;;;;;;;8.75;1.60;;;7.00;99.90;;;;;;5008899;28;20061;-85
2023/01/09 01:02:19;;;;;;;10.68;1.80;;;7.00;99.90;;;;;;4989723;28;20093;-86
2023/01/09 01:07:39;;;;;;;9.57;1.75;;;7.00;99.90;;;;;;5009155;28;20575;-88
2023/01/09 01:10:12;;;;;;;11.07;1.67;;;7.00;99.90;;;;;;4971841;28;20045;-84
2023/01/09 01:12:39;;;;;;;9.32;1.58;;;7.00;99.90;;;;;;5008192;28;20072;-85
2023/01/09 01:15:06;;;;;;;11.75;1.98;;;7.00;99.90;;;;;;4989177;28;20053;-85
2023/01/09 01:17:37;;;;;;;6.22;1.40;;;7.20;99.90;;;;;;4990100;28;20371;-85
2023/01/09 01:20:10;;;;;;;11.32;1.92;;;7.10;99.90;;;;;;5006563;28;20061;-87
2023/01/09 01:22:36;;;;;;;7.53;1.70;;;6.80;99.90;;;;;;5005543;28;20069;-84
2023/01/09 01:25:04;;;;;;;6.57;1.90;;;6.90;99.90;;;;;;5008414;28;20040;-86
2023/01/09 01:27:29;;;;;;;10.43;1.95;;;6.90;99.90;;;;;;5009899;28;20045;-85
2023/01/09 01:29:55;;;;;;;8.20;1.60;;;7.60;99.90;;;;;;5004016;28;20502;-85
2023/01/09 01:32:22;;;;;;;7.35;1.60;;;6.90;99.90;;;;;;5006101;28;20060;-85
2023/01/09 01:34:48;;;;;;;10.00;1.63;;;5.50;99.90;;;;;;5024353;28;20131;-86
2023/01/09 01:37:13;;;;;;;6.15;1.70;;;6.80;99.90;;;;;;5007703;28;20077;-83
2023/01/09 01:39:40;;;;;;;9.43;1.50;;;6.90;99.90;;;;;;5007735;28;20482;-85
2023/01/09 01:42:06;;;;;;;10.55;1.50;;;6.90;99.90;;;;;;5023807;28;20041;-85
2023/01/09 01:44:57;;;;;;;9.32;1.60;;;6.80;99.90;;;;;;5008913;28;20118;-86
2023/01/09 01:47:27;;;;;;;10.05;1.70;;;5.50;99.90;;;;;;5007020;28;20137;-85
2023/01/09 01:49:54;;;;;;;9.25;1.83;;;6.80;99.90;;;;;;5024476;28;20049;-86
2023/01/09 01:52:20;;;;;;;8.85;1.67;;;6.80;99.90;;;;;;5008345;28;20037;-85
2023/01/09 01:54:47;;;;;;;5.68;1.55;;;6.80;99.90;;;;;;5022066;28;20080;-85
2023/01/09 01:57:13;;;;;;;7.47;1.75;;;6.80;99.90;;;;;;4992701;28;20045;-85
2023/01/09 01:59:52;;;;;;;11.27;1.80;;;6.70;99.90;;;;;;4988369;28;20064;-86
2023/01/09 02:02:24;;;;;;;10.40;1.48;;;6.70;99.90;;;;;;5007317;28;20053;-84
2023/01/09 02:04:52;;;;;;;6.82;1.40;;;6.70;99.90;;;;;;5011273;28;20452;-84
2023/01/09 02:07:19;;;;;;;9.15;1.92;;;6.60;99.90;;;;;;5028470;28;20045;-84
2023/01/09 02:09:45;;;;;;;6.90;1.45;;;7.20;99.90;;;;;;5013508;28;20131;-86
2023/01/09 02:12:23;;;;;;;8.82;1.55;;;6.60;99.90;;;;;;5014214;28;20128;-86
2023/01/09 02:15:12;;;;;;;10.13;1.58;;;6.50;99.90;;;;;;5009259;28;20068;-87
2023/01/09 02:17:46;;;;;;;5.95;1.30;;;6.50;99.90;;;;;;5006501;28;20064;-87
2023/01/09 02:20:30;;;;;;;8.45;1.63;;;6.40;99.90;;;;;;5022376;28;20886;-86
2023/01/09 02:23:30;;;;;;;12.10;1.98;;;6.40;99.90;;;;;;5022842;28;20052;-87
2023/01/09 02:26:30;;;;;;;10.85;1.70;;;6.40;99.90;;;;;;5004232;28;20041;-87
2023/01/09 02:29:14;;;;;;;8.55;1.50;;;6.30;99.90;;;;;;5015999;28;20048;-86
2023/01/09 02:31:59;;;;;;;8.52;1.65;;;6.30;99.90;;;;;;5028065;28;20056;-87
2023/01/09 02:35:17;;;;;;;4.53;1.52;;;6.30;99.90;;;;;;5010665;28;20080;-88
2023/01/09 02:38:05;;;;;;;6.57;1.60;;;6.30;99.90;;;;;;4970711;28;20064;-87
2023/01/09 02:40:35;;;;;;;6.68;1.48;;;6.20;99.90;;;;;;5026542;28;20510;-87
2023/01/09 02:43:02;;;;;;;11.35;1.73;;;6.20;99.90;;;;;;5018510;28;20045;-87
2023/01/09 02:45:28;;;;;;;12.15;2.28;;;6.20;99.90;;;;;;5009901;28;20531;-86
2023/01/09 02:47:53;;;;;;;6.20;1.40;;;6.20;99.90;;;;;;4978942;28;20224;-87
2023/01/09 02:50:23;;;;;;;9.68;1.67;;;6.10;99.90;;;;;;4995058;28;20131;-86
2023/01/09 02:53:20;;;;;;;11.10;1.73;;;6.20;99.90;;;;;;5026784;28;20045;-86
2023/01/09 02:56:10;;;;;;;;;;;6.10;99.90;;;;;;5009864;28;20076;-87
2023/01/09 02:58:51;;;;;;;8.10;1.67;;;6.10;99.90;;;;;;5008936;28;20003;-86
2023/01/09 03:01:16;;;;;;;6.43;1.60;;;6.00;99.90;;;;;;5008312;28;20045;-86
2023/01/09 03:04:03;;;;;;;8.70;1.35;;;6.00;99.90;;;;;;5009818;28;20234;-86
2023/01/09 03:06:35;;;;;;;;;;;5.90;99.90;;;;;;5026166;28;20045;-86
2023/01/09 03:09:11;;;;;;;4.75;1.35;;;5.80;99.90;;;;;;5009867;28;20379;-87
2023/01/09 03:11:40;;;;;;;;;;;5.80;99.90;;;;;;5026567;28;20053;-87
2023/01/09 03:14:11;;;;;;;11.07;2.20;;;6.20;99.90;;;;;;5024524;28;19925;-87
2023/01/09 03:16:37;;;;;;;8.15;1.50;;;5.70;99.90;;;;;;5025269;28;20380;-87
2023/01/09 03:19:14;;;;;;;9.15;1.65;;;5.60;99.90;;;;;;5010060;28;20650;-87
2023/01/09 03:21:41;;;;;;;8.82;2.13;;;5.60;99.90;;;;;;5025989;28;20060;-86
2023/01/09 03:24:07;;;;;;;7.78;1.63;;;5.60;99.90;;;;;;5009420;28;20042;-88
2023/01/09 03:26:33;;;;;;;5.40;1.70;;;6.00;99.90;;;;;;5027005;28;20059;-87
2023/01/09 03:28:59;;;;;;;6.55;2.00;;;6.20;99.90;;;;;;5026623;28;20049;-86
2023/01/09 03:31:25;;;;;;;8.30;1.73;;;5.50;99.90;;;;;;4992932;28;20060;-87
2023/01/09 03:33:51;;;;;;;7.65;1.80;;;4.50;99.90;;;;;;5011760;28;20041;-86
2023/01/09 03:36:18;;;;;;;5.90;1.73;;;5.50;99.90;;;;;;5027513;28;20037;-88
2023/01/09 03:38:44;;;;;;;6.32;1.95;;;5.40;99.90;;;;;;5012159;28;20045;-85
2023/01/09 03:41:10;;;;;;;7.65;1.77;;;5.40;99.90;;;;;;5011735;28;20103;-86
2023/01/09 03:43:36;;;;;;;7.53;1.88;;;5.40;99.90;;;;;;5012552;28;20041;-86
2023/01/09 03:46:02;;;;;;;9.57;2.05;;;5.30;99.90;;;;;;5014221;28;20442;-85
2023/01/09 03:48:28;;;;;;;11.13;2.20;;;5.40;99.90;;;;;;5012712;28;20049;-88
2023/01/09 03:50:55;;;;;;;5.65;2.60;;;5.40;99.90;;;;;;5030442;28;20118;-85
2023/01/09 03:53:23;;;;;;;8.68;2.45;;;5.40;99.90;;;;;;5002312;28;20483;-85
2023/01/09 03:55:52;;;;;;;7.78;2.22;;;5.40;99.90;;;;;;5023600;28;20052;-86
2023/01/09 03:58:18;;;;;;;9.60;2.30;;;5.40;99.90;;;;;;5016468;28;20049;-87
2023/01/09 04:00:45;;;;;;;8.38;2.10;;;6.00;99.90;;;;;;4996379;28;20104;-85
2023/01/09 04:03:11;;;;;;;5.72;2.03;;;5.40;99.90;;;;;;5009604;28;20491;-87
2023/01/09 04:05:39;;;;;;;7.15;2.30;;;5.60;99.90;;;;;;5008405;28;20057;-87
2023/01/09 04:08:05;;;;;;;7.60;2.38;;;5.40;99.90;;;;;;4986447;28;20057;-84
2023/01/09 04:10:31;;;;;;;13.82;2.67;;;5.40;99.90;;;;;;5002144;28;20052;-85
2023/01/09 04:12:57;;;;;;;9.02;2.55;;;5.40;99.90;;;;;;5016338;28;20053;-86
2023/01/09 04:15:24;;;;;;;6.47;2.53;;;5.40;99.90;;;;;;5007199;28;20041;-85
2023/01/09 04:17:50;;;;;;;8.77;3.00;;;5.40;99.90;;;;;;4994123;28;20068;-85
2023/01/09 04:20:16;;;;;;;10.18;3.08;;;5.40;99.90;;;;;;5025808;28;20041;-85
2023/01/09 04:22:42;;;;;;;10.80;3.47;;;5.50;99.90;;;;;;5008948;28;20053;-85
2023/01/09 04:25:08;;;;;;;9.65;3.78;;;5.60;99.90;;;;;;5006690;28;20398;-86
2023/01/09 04:27:33;;;;;;;9.75;4.28;;;4.20;99.90;;;;;;4974201;28;20053;-85
2023/01/09 04:29:59;;;;;;;9.20;4.70;;;5.80;99.90;;;;;;5024895;28;20045;-86
2023/01/09 04:32:26;;;;;;;11.45;5.57;;;5.70;99.90;;;;;;5008018;28;20076;-85
2023/01/09 04:34:53;;;;;;;9.82;5.55;;;4.50;99.90;;;;;;5024669;28;20179;-86
2023/01/09 04:37:20;;;;;;;12.15;5.80;;;5.80;99.90;;;;;;5024508;28;20045;-86
2023/01/09 04:39:46;;;;;;;11.98;5.32;;;5.80;99.90;;;;;;4985839;28;20053;-84
2023/01/09 04:42:12;;;;;;;14.48;5.38;;;5.80;99.90;;;;;;4992456;28;20045;-85
2023/01/09 04:44:38;;;;;;;9.93;5.43;;;5.00;99.90;;;;;;5023984;28;20045;-86
2023/01/09 04:47:04;;;;;;;12.95;5.53;;;5.90;99.90;;;;;;4990379;28;20207;-86
2023/01/09 04:49:30;;;;;;;11.05;5.93;;;5.80;99.90;;;;;;5008195;28;20116;-86
2023/01/09 04:51:56;;;;;;;11.52;5.13;;;5.80;99.90;;;;;;4974564;28;20085;-85
2023/01/09 04:54:22;;;;;;;12.18;5.28;;;5.80;99.90;;;;;;5007003;28;20199;-86
2023/01/09 04:56:48;;;;;;;8.43;5.60;;;5.80;99.90;;;;;;5024194;28;20504;-87
2023/01/09 04:59:14;;;;;;;10.15;6.25;;;5.70;99.90;;;;;;4989927;28;20106;-85
2023/01/09 05:01:40;;;;;;;10.75;6.60;;;5.70;99.90;;;;;;5016684;28;20050;-84
2023/01/09 05:04:06;;;;;;;11.00;6.72;;;5.80;99.90;;;;;;5007077;28;20053;-86
2023/01/09 05:06:33;;;;;;;12.48;6.65;;;5.50;99.90;;;;;;5006313;28;20060;-86
2023/01/09 05:08:59;;;;;;;18.13;6.75;;;5.80;99.90;;;;;;4976354;28;20124;-83
2023/01/09 05:11:25;;;;;;;16.30;7.07;;;;;;;;;;4987503;28;20045;-86
2023/01/09 05:13:51;;;;;;;11.75;7.30;;;5.80;99.90;;;;;;5004250;28;20674;-86
2023/01/09 05:16:17;;;;;;;15.05;7.10;;;6.10;99.90;;;;;;5024463;28;20049;-86
2023/01/09 05:18:43;;;;;;;12.68;7.28;;;4.80;99.90;;;;;;5023264;28;20132;-86
2023/01/09 05:21:09;;;;;;;12.35;6.22;;;5.90;99.90;;;;;;5008646;28;20049;-86
2023/01/09 05:23:35;;;;;;;17.92;7.07;;;6.00;99.90;;;;;;5023452;28;20041;-87
2023/01/09 05:26:03;;;;;;;14.02;6.93;;;6.00;99.90;;;;;;4976433;28;20045;-86
2023/01/09 05:28:29;;;;;;;12.30;6.30;;;6.00;99.90;;;;;;5006797;28;20053;-84
2023/01/09 05:30:55;;;;;;;14.40;6.57;;;6.00;99.90;;;;;;5007732;28;20049;-85
2023/01/09 05:33:21;;;;;;;15.10;7.05;;;6.20;99.90;;;;;;5008125;28;20198;-86
2023/01/09 05:35:47;;;;;;;14.38;6.60;;;6.10;99.90;;;;;;4989996;28;20045;-85
2023/01/09 05:38:13;;;;;;;13.15;7.20;;;6.00;99.90;;;;;;5009278;28;20049;-87
2023/01/09 05:40:39;;;;;;;14.07;7.30;;;6.10;99.90;;;;;;4985288;28;20053;-85
2023/01/09 05:43:04;;;;;;;16.23;7.32;;;6.20;99.90;;;;;;5008549;28;20127;-86
2023/01/09 05:45:30;;;;;;;14.27;7.90;;;6.10;99.90;;;;;;5008212;28;20124;-86
2023/01/09 05:47:56;;;;;;;15.32;7.50;;;6.10;99.90;;;;;;4989467;28;20053;-87
2023/01/09 05:50:22;;;;;;;16.38;6.72;;;5.00;99.90;;;;;;5008009;28;20093;-86
2023/01/09 05:52:48;;;;;;;12.20;5.95;;;6.10;99.90;;;;;;4989412;28;20046;-86
2023/01/09 05:55:14;;;;;;;10.15;6.25;;;6.10;99.90;;;;;;5007022;28;20048;-86
2023/01/09 05:57:40;;;;;;;14.50;6.30;;;6.10;99.90;;;;;;5007030;28;20057;-86
2023/01/09 06:00:06;;;;;;;10.45;6.40;;;5.20;99.90;;;;;;5024088;28;20120;-86
2023/01/09 06:02:32;;;;;;;11.80;6.47;;;6.10;99.90;;;;;;5006348;28;20168;-84
2023/01/09 06:04:58;;;;;;;10.65;5.75;;;5.40;99.90;;;;;;4987944;28;20537;-86
2023/01/09 06:07:24;;;;;;;13.82;6.03;;;6.10;99.90;;;;;;4993369;28;20045;-87
2023/01/09 06:09:50;;;;;;;13.15;6.47;;;6.10;99.90;;;;;;5006551;28;20611;-86
2023/01/09 06:12:15;;;;;;;14.48;7.07;;;6.00;99.90;;;;;;4986167;28;20046;-84
2023/01/09 06:14:41;;;;;;;14.80;7.15;;;6.10;99.90;;;;;;4994570;28;20053;-85
2023/01/09 06:17:08;;;;;;;14.48;7.00;;;6.00;99.90;;;;;;5007808;28;20100;-86
2023/01/09 06:19:33;;;;;;;13.65;6.97;;;5.90;99.90;;;;;;5022439;28;20483;-88
2023/01/09 06:21:59;;;;;;;12.70;7.20;;;5.80;99.90;;;;;;5008677;28;20048;-89
2023/01/09 06:24:25;;;;;;;10.85;7.32;;;5.80;99.90;;;;;;5002995;28;20506;-86
2023/01/09 06:26:52;;;;;;;12.10;7.32;;;5.80;99.90;;;;;;4984581;28;20045;-88
2023/01/09 06:29:18;;;;;;;12.63;7.13;;;5.80;99.90;;;;;;5019867;28;20053;-88
2023/01/09 06:31:44;;;;;;;11.80;6.97;;;5.80;99.90;;;;;;5006190;28;20046;-88
2023/01/09 06:34:11;;;;;;;12.32;6.75;;;5.70;99.90;;;;;;4989684;28;20449;-88
2023/01/09 06:36:37;;;;;;;13.02;7.32;;;5.40;99.90;;;;;;4986213;28;20099;-88
2023/01/09 06:39:03;;;;;;;11.55;7.03;;;5.60;99.90;;;;;;5006898;28;20049;-87
2023/01/09 06:41:29;;;;;;;12.00;6.63;;;5.70;99.90;;;;;;5029850;28;20048;-89
2023/01/09 06:43:55;;;;;;;13.52;6.68;;;5.70;99.90;;;;;;5009927;28;20055;-85
2023/01/09 06:46:20;;;;;;;12.43;6.78;;;5.80;99.90;;;;;;5008064;28;20045;-86
2023/01/09 06:48:46;;;;;;;15.82;6.88;;;5.60;99.90;;;;;;4996404;28;20174;-86
2023/01/09 06:51:12;;;;;;;10.27;6.72;;;5.70;99.90;;;;;;5000130;28;20164;-86
2023/01/09 06:53:38;;;;;;;16.13;7.70;;;5.60;99.90;;;;;;4984681;28;20058;-86
2023/01/09 06:56:04;;;;;;;13.57;7.63;;;5.60;99.90;;;;;;5013492;28;20109;-86
2023/01/09 06:58:30;;;;;;;14.50;8.30;;;6.60;99.90;;;;;;5015122;28;20043;-88
2023/01/09 07:00:57;;;;;;;12.63;8.23;;;5.60;99.90;;;;;;4997420;28;20049;-85
2023/01/09 07:03:23;;;;;;;15.65;8.57;;;5.70;99.90;;;;;;5016920;28;20147;-85
2023/01/09 07:05:49;;;;;;;14.05;8.48;;;5.80;99.90;;;;;;4997912;28;20049;-85
2023/01/09 07:08:15;;;;;;;17.60;9.07;;;5.70;99.90;;;;;;4998259;28;20045;-87
2023/01/09 07:10:44;;;;;;;14.18;8.40;;;5.80;99.90;;;;;;5003325;28;20069;-89
2023/01/09 07:13:10;;;;;;;11.48;7.88;;;5.70;99.90;;;;;;5017886;28;20457;-86
2023/01/09 07:15:36;;;;;;;13.40;8.50;;;5.60;99.90;;;;;;5018958;28;20084;-87
2023/01/09 07:18:02;;;;;;;12.18;8.38;;;5.60;99.90;;;;;;5006814;28;20139;-87
2023/01/09 07:20:30;;;;;;;13.52;8.35;;;5.70;99.90;;;;;;4977903;28;20045;-89
2023/01/09 07:22:56;;;;;;;15.38;8.32;;;7.30;99.90;;;;;;5013437;28;20126;-89
2023/01/09 07:25:22;;;;;;;13.73;8.48;;;5.70;99.90;;;;;;5009958;28;20159;-87
2023/01/09 07:27:48;;;;;;;11.05;8.00;;;5.70;99.90;;;;;;5016573;28;20046;-87
2023/01/09 07:30:14;;;;;;;14.70;8.48;;;5.70;99.90;;;;;;5014016;28;20551;-90
2023/01/09 07:32:40;;;;;;;16.60;8.23;;;6.00;99.90;;;;;;4996998;28;20049;-87
2023/01/09 07:35:08;;;;;;;14.27;8.27;;;6.70;99.90;;;;;;5017458;28;20060;-90
2023/01/09 07:37:34;;;;;;;14.45;8.80;;;5.80;99.90;;;;;;5019396;28;20073;-87
2023/01/09 07:40:00;;;;;;;15.27;8.07;;;;;;;;;;5018346;28;20130;-84
2023/01/09 07:42:26;;;;;;;13.20;8.55;;;5.80;99.90;;;;;;5000698;28;20052;-88
2023/01/09 07:44:52;;;;;;;12.95;7.68;;;5.90;99.90;;;;;;4994275;28;20053;-88
2023/01/09 07:47:20;;;;;;;13.48;8.00;;;5.90;99.90;;;;;;4999099;28;20045;-86
2023/01/09 07:49:46;;;;;;;12.90;8.07;;;5.80;99.90;;;;;;5003815;28;20445;-88
2023/01/09 07:52:12;;;;;;;16.88;7.53;;;6.00;99.90;;;;;;5009655;28;20133;-84
2023/01/09 07:54:38;;;;;;;15.07;8.55;;;5.90;99.90;;;;;;5022638;28;20473;-85
2023/01/09 07:57:28;;;;;;;;;;;;;;;;;;;;;
2023/01/09 08:00:05;;;;;;;;;;;;;;;;;;;;;
2023/01/09 08:02:31;;;;;;;12.75;7.90;;;5.10;99.90;;;;;;5028367;28;20213;-85
2023/01/09 08:04:57;;;;;;;17.50;7.32;;;5.80;99.90;;;;;;4997111;28;20053;-83
2023/01/09 08:07:23;;;;;;;13.43;7.80;;;5.80;99.90;;;;;;5005690;28;20092;-84
2023/01/09 08:09:49;;;;;;;11.75;7.38;;;5.70;99.90;;;;;;5004774;28;20132;-84
2023/01/09 08:12:14;;;;;;;10.38;7.10;;;5.80;99.90;;;;;;5005347;28;20126;-84
2023/01/09 08:14:40;;;;;;;13.23;7.00;;;5.80;99.90;;;;;;4987692;28;20062;-83
2023/01/09 08:17:08;;;;;;;10.85;6.60;;;5.80;99.90;;;;;;4981352;28;20053;-84
2023/01/09 08:19:34;;;;;;;9.35;6.55;;;5.70;99.90;;;;;;5004147;28;20045;-84
2023/01/09 08:21:59;;;;;;;10.43;6.38;;;5.80;99.90;;;;;;5004245;28;20744;-84
2023/01/09 08:24:29;;;;;;;12.77;6.10;;;5.80;99.90;;;;;;5004279;28;20550;-85
2023/01/09 08:26:54;;;;;;;13.75;6.18;;;5.80;99.90;;;;;;5004187;28;20534;-85
2023/01/09 08:29:20;;;;;;;8.25;5.60;;;5.70;99.90;;;;;;5003730;28;20064;-84
2023/01/09 08:31:46;;;;;;;9.80;5.82;;;5.80;99.90;;;;;;4997363;28;20482;-84
2023/01/09 08:34:12;;;;;;;12.05;5.75;;;5.80;99.90;;;;;;5004314;28;20762;-84
2023/01/09 08:36:38;;;;;;;10.43;4.93;;;6.00;99.90;;;;;;4985928;28;20280;-84
2023/01/09 08:39:04;;;;;;;9.52;5.55;;;6.00;99.90;;;;;;4980487;28;20046;-85
2023/01/09 08:47:04;;;;;;;8.70;4.78;;;;;;;;;;5022223;28;20126;-84
2023/01/09 08:49:32;;;;;;;9.85;4.88;;;5.90;99.90;;;;;;4987530;28;20099;-85
2023/01/09 08:51:58;;;;;;;6.63;4.13;;;6.00;99.90;;;;;;5005141;28;20049;-86
2023/01/09 08:54:23;;;;;;;8.30;4.07;;;5.90;99.90;;;;;;4985825;28;20041;-86
2023/01/09 08:56:49;;;;;;;6.97;4.38;;;5.90;99.90;;;;;;5005277;28;20095;-86
2023/01/09 08:59:18;;;;;;;12.50;4.78;;;5.90;99.90;;;;;;5003053;28;20064;-86
2023/01/09 09:01:47;;;;;;;8.80;4.65;;;7.00;99.90;;;;;;5006395;28;20038;-85
2023/01/09 09:04:15;;;;;;;8.35;4.80;;;6.10;99.90;;;;;;5001579;28;20065;-86
2023/01/09 09:06:50;;;;;;;9.13;4.80;;;6.10;99.90;;;;;;4983068;28;20059;-86
2023/01/09 09:09:19;;;;;;;12.40;5.03;;;4.60;99.90;;;;;;5001274;28;20111;-85
2023/01/09 09:11:45;;;;;;;9.50;4.88;;;6.10;99.90;;;;;;5003718;28;20483;-85
2023/01/09 09:16:55;;;;;;;8.15;4.82;;;6.00;99.90;;;;;;5020071;28;20050;-85
2023/01/09 09:19:24;;;;;;;10.35;5.10;;;6.10;99.90;;;;;;5002852;28;20104;-85
2023/01/09 09:21:55;;;;;;;9.88;5.53;;;6.00;99.90;;;;;;4984747;28;20041;-89
2023/01/09 09:24:21;;;;;;;7.40;4.55;;;6.10;99.90;;;;;;5019750;28;20044;-84
2023/01/09 09:26:46;;;;;;;10.80;5.15;;;6.20;99.90;;;;;;5019058;28;20049;-85
2023/01/09 09:29:15;;;;;;;7.95;4.60;;;6.10;99.90;;;;;;5001799;28;20069;-86
2023/01/09 09:31:44;;;;;;;9.07;4.93;;;6.10;99.90;;;;;;5005340;28;20057;-86
2023/01/09 09:34:18;;;;;;;10.10;4.90;;;5.70;99.90;;;;;;5027963;28;20041;-86
2023/01/09 09:36:49;;;;;;;7.95;4.68;;;5.10;99.90;;;;;;4990617;28;20069;-85
2023/01/09 09:39:18;;;;;;;7.72;4.90;;;6.20;99.90;;;;;;4990503;28;20053;-86
2023/01/09 09:45:41;;;;;;;9.25;4.75;;;6.40;99.90;;;;;;4924645;28;20059;-86
2023/01/09 09:48:42;;;;;;;9.23;4.93;;;7.30;99.90;;;;;;5004001;28;20388;-88
2023/01/09 09:51:49;;;;;;;8.95;4.35;;;6.30;99.90;;;;;;5020045;28;20052;-87
2023/01/09 09:54:23;;;;;;;8.68;4.55;;;6.50;99.90;;;;;;5002030;28;20058;-87
2023/01/09 09:57:03;;;;;;;8.20;4.80;;;6.50;99.90;;;;;;4999066;28;20057;-86
2023/01/09 09:59:42;;;;;;;9.52;4.57;;;6.60;99.90;;;;;;4988953;28;20048;-85
2023/01/09 10:02:08;;;;;;;9.10;5.22;;;6.60;99.90;;;;;;4999415;28;20035;-87
2023/01/09 10:04:44;;;;;;;9.52;5.30;;;6.60;99.90;;;;;;5004017;28;20140;-87
2023/01/09 10:07:25;;;;;;;;;;;6.70;99.90;;;;;;4997134;28;20053;-87
2023/01/09 10:10:22;;;;;;;10.82;5.00;;;6.60;99.90;;;;;;5017758;28;20351;-86
2023/01/09 10:12:55;;;;;;;;;;;7.00;99.90;;;;;;5019569;28;20053;-86
2023/01/09 10:15:35;;;;;;;7.10;4.53;;;6.60;99.90;;;;;;5018375;28;20381;-88
2023/01/09 10:18:31;;;;;;;10.32;4.90;;;6.80;99.90;;;;;;5003963;28;20045;-86
2023/01/09 10:21:19;;;;;;;10.75;4.43;;;6.70;99.90;;;;;;4991359;28;20056;-85
2023/01/09 10:24:00;;;;;;;10.45;4.75;;;6.90;99.90;;;;;;5019009;28;20060;-85
2023/01/09 10:26:45;;;;;;;10.82;4.75;;;6.20;99.90;;;;;;5003334;28;20574;-85
2023/01/09 10:29:26;;;;;;;9.05;5.03;;;7.00;99.90;;;;;;5018765;28;20045;-85
2023/01/09 10:32:05;;;;;;;8.38;4.90;;;7.40;99.90;;;;;;5019587;28;20045;-85
2023/01/09 10:34:55;;;;;;;7.35;4.90;;;7.60;99.90;;;;;;5002920;28;20501;-85
2023/01/09 10:37:31;;;;;;;10.27;4.95;;;7.80;99.90;;;;;;5019462;28;20115;-85
2023/01/09 10:40:13;;;;;;;10.93;5.10;;;7.80;99.90;;;;;;5018916;28;20107;-85
2023/01/09 10:42:56;;;;;;;8.30;5.07;;;7.50;99.90;;;;;;5020304;28;20064;-85
2023/01/09 10:45:49;;;;;;;7.28;4.75;;;7.90;99.90;;;;;;5002054;28;20058;-88
2023/01/09 10:48:37;;;;;;;8.60;4.90;;;9.30;99.90;;;;;;5025658;28;20056;-86
2023/01/09 10:51:20;;;;;;;11.88;4.60;;;7.90;99.90;;;;;;5011241;28;20152;-85
2023/01/09 10:53:55;;;;;;;8.93;4.38;;;8.90;99.90;;;;;;5011148;28;20398;-87
2023/01/09 10:56:35;;;;;;;10.73;4.80;;;7.30;99.90;;;;;;5028546;28;20107;-86
2023/01/09 10:59:03;;;;;;;9.25;5.43;;;7.70;99.90;;;;;;5030548;28;20067;-83
2023/01/09 11:01:37;;;;;;;10.40;5.20;;;7.70;99.90;;;;;;5008905;28;21030;-84
2023/01/09 11:04:33;;;;;;;12.32;5.30;;;7.70;99.90;;;;;;5027599;28;20539;-86
2023/01/09 11:07:10;;;;;;;8.10;5.40;;;8.20;99.90;;;;;;5020315;28;20509;-84
2023/01/09 11:09:54;;;;;;;9.40;5.70;;;7.60;99.90;;;;;;5022829;28;20061;-84
2023/01/09 11:12:30;;;;;;;11.75;5.30;;;7.60;99.90;;;;;;5024488;28;20049;-86
2023/01/09 11:15:16;;;;;;;8.98;5.65;;;7.90;99.90;;;;;;5019528;28;20140;-85
2023/01/09 11:17:42;;;;;;;8.50;6.07;;;7.60;99.90;;;;;;5014608;28;20049;-82
2023/01/09 11:20:17;;;;;;;12.02;6.30;;;7.60;99.90;;;;;;4991511;28;20049;-83
2023/01/09 11:22:48;;;;;;;9.98;6.30;;;7.60;99.90;;;;;;5025016;28;20049;-83
2023/01/09 11:25:21;;;;;;;12.07;6.93;;;7.60;99.90;;;;;;5007821;28;20136;-83
2023/01/09 11:28:07;;;;;;;11.82;6.47;;;7.70;99.90;;;;;;5006443;28;20050;-89
2023/01/09 11:31:27;;;;;;;;;;;;;;;;;;;;;
2023/01/09 11:34:16;;;;;;;11.52;6.55;;;8.50;99.90;;;;;;5032851;28;20054;-85
2023/01/09 11:36:43;;;;;;;12.35;6.75;;;7.60;99.90;;;;;;5006844;28;20387;-82
2023/01/09 11:39:24;;;;;;;12.50;6.32;;;7.60;99.90;;;;;;4988469;28;20045;-84
2023/01/09 11:41:56;;;;;;;12.10;6.90;;;7.60;99.90;;;;;;5024281;28;20041;-84
2023/01/09 11:44:26;;;;;;;10.77;6.43;;;7.80;99.90;;;;;;5005714;28;20136;-84
2023/01/09 11:46:52;;;;;;;14.13;6.90;;;7.60;99.90;;;;;;5007307;28;20045;-82
2023/01/09 11:49:31;;;;;;;11.73;5.97;;;7.50;99.90;;;;;;5022582;28;20076;-86
2023/01/09 11:52:16;;;;;;;13.48;6.82;;;7.50;99.90;;;;;;5010773;28;20064;-85
2023/01/09 11:54:51;;;;;;;10.30;5.57;;;7.70;99.90;;;;;;5025919;28;20049;-84
2023/01/09 11:57:17;;;;;;;12.02;6.70;;;7.80;99.90;;;;;;5008148;28;20080;-82
2023/01/09 11:59:43;;;;;;;14.13;6.25;;;7.80;99.90;;;;;;5009335;28;20053;-84
2023/01/09 12:02:37;;;;;;;13.05;5.38;;;7.90;99.90;;;;;;5010035;28;20111;-83
2023/01/09 12:05:27;;;;;;;12.98;5.25;;;7.90;99.90;;;;;;5026386;28;20053;-83
2023/01/09 12:08:35;;;;;;;15.77;5.50;;;7.90;99.90;;;;;;5022824;28;20049;-84
2023/01/09 12:11:00;;;;;;;;;;;7.90;99.90;;;;;;5004431;28;20057;-83
2023/01/09 12:13:45;;;;;;;8.33;4.93;;;7.90;99.90;;;;;;5007542;28;19925;-83
2023/01/09 12:16:49;;;;;;;9.55;4.78;;;7.90;99.90;;;;;;5009813;28;20658;-84
2023/01/09 12:20:00;;;;;;;12.95;4.18;;;7.90;99.90;;;;;;5008914;28;20053;-83
2023/01/09 12:23:02;;;;;;;10.25;4.32;;;7.90;99.90;;;;;;4965661;28;20061;-84
2023/01/09 12:26:02;;;;;;;11.05;3.08;;;7.90;99.90;;;;;;5007238;28;20059;-83
2023/01/09 12:28:34;;;;;;;12.45;3.17;;;7.90;99.90;;;;;;5010716;28;20415;-83
2023/01/09 12:31:33;;;;;;;9.07;2.97;;;7.90;99.90;;;;;;5024571;28;20056;-83
2023/01/09 12:34:22;;;;;;;13.80;3.08;;;8.00;99.90;;;;;;5027345;28;20088;-85
2023/01/09 12:36:47;;;;;;;11.02;2.90;;;7.10;99.90;;;;;;5001036;28;20071;-87
2023/01/09 12:39:21;;;;;;;10.63;2.40;;;8.00;99.90;;;;;;5013045;28;20052;-84
2023/01/09 12:41:59;;;;;;;10.50;2.10;;;8.00;99.90;;;;;;5027292;28;20057;-84
2023/01/09 12:44:43;;;;;;;9.50;2.58;;;8.10;99.90;;;;;;5027486;28;20095;-83
2023/01/09 12:47:27;;;;;;;9.70;2.15;;;8.00;99.90;;;;;;5025691;28;20061;-85
2023/01/09 12:50:27;;;;;;;9.45;2.55;;;9.00;99.90;;;;;;5009766;28;20057;-87
2023/01/09 12:53:15;;;;;;;9.23;2.17;;;6.80;99.90;;;;;;5001337;28;20061;-87
2023/01/09 12:55:55;;;;;;;8.77;2.30;;;7.70;99.90;;;;;;5001541;28;20045;-83
2023/01/09 12:58:38;;;;;;;10.30;2.45;;;8.40;99.90;;;;;;5009679;28;20077;-84
2023/01/09 13:01:09;;;;;;;6.70;2.38;;;7.70;99.90;;;;;;5013091;28;20056;-85
2023/01/09 13:03:46;;;;;;;9.05;2.50;;;7.50;99.90;;;;;;5007140;28;20066;-85
2023/01/09 13:06:16;;;;;;;12.70;2.45;;;8.30;99.90;;;;;;5023557;28;20050;-84
2023/01/09 13:09:09;;;;;;;11.15;2.22;;;8.40;99.90;;;;;;5009500;28;20905;-83
2023/01/09 13:11:50;;;;;;;11.82;2.10;;;8.30;99.90;;;;;;5010122;28;20053;-83
2023/01/09 13:14:25;;;;;;;9.88;2.60;;;8.40;99.90;;;;;;5022916;28;20049;-84
2023/01/09 13:16:54;;;;;;;14.77;2.80;;;8.30;99.90;;;;;;5010864;28;20402;-85
2023/01/09 13:19:26;;;;;;;13.30;2.40;;;8.30;99.90;;;;;;5007779;28;20136;-85
2023/01/09 13:21:53;;;;;;;9.85;2.45;;;8.30;99.90;;;;;;5024874;28;20064;-84
2023/01/09 13:24:30;;;;;;;10.85;2.53;;;8.30;99.90;;;;;;5008377;28;20084;-88
2023/01/09 13:26:59;;;;;;;15.20;2.90;;;8.30;99.90;;;;;;5009519;28;20052;-84
2023/01/09 13:29:41;;;;;;;12.93;2.25;;;8.30;99.90;;;;;;5008409;28;20092;-84
2023/01/09 13:32:17;;;;;;;10.45;2.30;;;8.30;99.90;;;;;;5008532;28;20056;-85
2023/01/09 13:34:52;;;;;;;13.75;2.88;;;8.20;99.90;;;;;;5009578;28;20125;-85
2023/01/09 13:37:36;;;;;;;13.40;2.70;;;8.20;99.90;;;;;;5008988;28;20871;-84